sensor_id;sensor_type;location;lat;lon;timestamp;temperature;humidity
5842;DHT22;2947;52.276;9.946;2022-12-29T00:02:10;9.40;99.90
5842;DHT22;2947;52.276;9.946;2022-12-29T00:04:36;9.40;99.90
5842;DHT22;2947;52.276;9.946;2022-12-29T00:07:02;9.40;99.90
5842;DHT22;2947;52.276;9.946;2022-12-29T00:09:32;9.50;99.90
5842;DHT22;2947;52.276;9.946;2022-12-29T00:11:59;9.40;99.90
5842;DHT22;2947;52.276;9.946;2022-12-29T00:14:26;9.40;99.90
5842;DHT22;2947;52.276;9.946;2022-12-29T00:17:11;9.50;99.90
5842;DHT22;2947;52.276;9.946;2022-12-29T00:19:37;9.50;99.90
5842;DHT22;2947;52.276;9.946;2022-12-29T00:22:21;9.50;99.90
5842;DHT22;2947;52.276;9.946;2022-12-29T00:25:07;9.50;99.90
5842;DHT22;2947;52.276;9.946;2022-12-29T00:27:52;9.50;99.90
5842;DHT22;2947;52.276;9.946;2022-12-29T00:30:36;9.60;99.90
5842;DHT22;2947;52.276;9.946;2022-12-29T00:33:22;9.60;99.90
5842;DHT22;2947;52.276;9.946;2022-12-29T00:36:19;9.60;99.90
5842;DHT22;2947;52.276;9.946;2022-12-29T00:38:55;9.60;99.90
5842;DHT22;2947;52.276;9.946;2022-12-29T00:41:42;9.60;99.90
5842;DHT22;2947;52.276;9.946;2022-12-29T00:44:26;9.70;99.90
5842;DHT22;2947;52.276;9.946;2022-12-29T00:46:51;9.50;99.90
5842;DHT22;2947;52.276;9.946;2022-12-29T00:49:17;9.70;99.90
5842;DHT22;2947;52.276;9.946;2022-12-29T00:51:59;9.80;99.90
5842;DHT22;2947;52.276;9.946;2022-12-29T00:54:37;9.80;99.90
5842;DHT22;2947;52.276;9.946;2022-12-29T00:57:05;9.80;99.90
5842;DHT22;2947;52.276;9.946;2022-12-29T00:59:35;9.80;99.90
5842;DHT22;2947;52.276;9.946;2022-12-29T01:02:01;9.80;99.90
5842;DHT22;2947;52.276;9.946;2022-12-29T01:04:27;9.80;99.90
5842;DHT22;2947;52.276;9.946;2022-12-29T01:06:53;9.80;99.90
5842;DHT22;2947;52.276;9.946;2022-12-29T01:09:19;9.80;99.90
5842;DHT22;2947;52.276;9.946;2022-12-29T01:12:05;9.80;99.90
5842;DHT22;2947;52.276;9.946;2022-12-29T01:14:32;10.00;99.90
5842;DHT22;2947;52.276;9.946;2022-12-29T01:16:57;9.80;99.90
5842;DHT22;2947;52.276;9.946;2022-12-29T01:19:24;9.80;99.90
5842;DHT22;2947;52.276;9.946;2022-12-29T01:21:51;9.80;99.90
5842;DHT22;2947;52.276;9.946;2022-12-29T01:24:18;9.70;99.90
5842;DHT22;2947;52.276;9.946;2022-12-29T01:26:45;9.70;99.90
5842;DHT22;2947;52.276;9.946;2022-12-29T01:29:11;9.70;99.90
5842;DHT22;2947;52.276;9.946;2022-12-29T01:31:37;9.70;99.90
5842;DHT22;2947;52.276;9.946;2022-12-29T01:34:03;9.70;99.90
5842;DHT22;2947;52.276;9.946;2022-12-29T01:36:29;9.80;99.90
5842;DHT22;2947;52.276;9.946;2022-12-29T01:38:55;9.80;99.90
5842;DHT22;2947;52.276;9.946;2022-12-29T01:41:21;9.80;99.90
5842;DHT22;2947;52.276;9.946;2022-12-29T01:43:52;9.80;99.90
5842;DHT22;2947;52.276;9.946;2022-12-29T01:46:33;9.80;99.90
5842;DHT22;2947;52.276;9.946;2022-12-29T01:51:39;9.70;99.90
5842;DHT22;2947;52.276;9.946;2022-12-29T01:54:16;9.70;99.90
5842;DHT22;2947;52.276;9.946;2022-12-29T01:56:45;9.60;99.90
5842;DHT22;2947;52.276;9.946;2022-12-29T01:59:16;9.90;99.90
5842;DHT22;2947;52.276;9.946;2022-12-29T02:01:44;9.60;99.90
5842;DHT22;2947;52.276;9.946;2022-12-29T02:04:11;9.60;99.90
5842;DHT22;2947;52.276;9.946;2022-12-29T02:06:45;9.60;99.90
5842;DHT22;2947;52.276;9.946;2022-12-29T02:09:15;10.30;99.90
5842;DHT22;2947;52.276;9.946;2022-12-29T02:11:40;9.60;99.90
5842;DHT22;2947;52.276;9.946;2022-12-29T02:14:10;9.70;99.90
5842;DHT22;2947;52.276;9.946;2022-12-29T02:17:04;9.70;99.90
5842;DHT22;2947;52.276;9.946;2022-12-29T02:23:26;9.80;99.90
5842;DHT22;2947;52.276;9.946;2022-12-29T02:45:33;10.20;99.90
5842;DHT22;2947;52.276;9.946;2022-12-29T02:48:09;10.20;99.90
5842;DHT22;2947;52.276;9.946;2022-12-29T02:51:02;10.20;99.90
5842;DHT22;2947;52.276;9.946;2022-12-29T02:53:32;10.30;99.90
5842;DHT22;2947;52.276;9.946;2022-12-29T02:56:17;10.20;99.90
5842;DHT22;2947;52.276;9.946;2022-12-29T02:58:43;10.30;99.90
5842;DHT22;2947;52.276;9.946;2022-12-29T03:01:29;10.30;99.90
5842;DHT22;2947;52.276;9.946;2022-12-29T03:04:43;10.30;99.90
5842;DHT22;2947;52.276;9.946;2022-12-29T03:13:41;10.40;99.90
5842;DHT22;2947;52.276;9.946;2022-12-29T03:16:51;10.40;99.90
5842;DHT22;2947;52.276;9.946;2022-12-29T03:19:30;10.40;99.90
5842;DHT22;2947;52.276;9.946;2022-12-29T03:22:01;10.40;99.90
5842;DHT22;2947;52.276;9.946;2022-12-29T03:24:54;10.50;99.90
5842;DHT22;2947;52.276;9.946;2022-12-29T03:27:33;10.40;99.90
5842;DHT22;2947;52.276;9.946;2022-12-29T03:30:04;10.40;99.90
5842;DHT22;2947;52.276;9.946;2022-12-29T03:32:53;10.30;99.90
5842;DHT22;2947;52.276;9.946;2022-12-29T03:35:22;10.30;99.90
5842;DHT22;2947;52.276;9.946;2022-12-29T03:37:54;10.30;99.90
5842;DHT22;2947;52.276;9.946;2022-12-29T03:40:23;10.30;99.90
5842;DHT22;2947;52.276;9.946;2022-12-29T03:42:50;10.20;99.90
5842;DHT22;2947;52.276;9.946;2022-12-29T03:45:18;10.20;99.90
5842;DHT22;2947;52.276;9.946;2022-12-29T03:47:44;10.20;99.90
5842;DHT22;2947;52.276;9.946;2022-12-29T03:50:12;10.30;99.90
5842;DHT22;2947;52.276;9.946;2022-12-29T03:52:38;10.10;99.90
5842;DHT22;2947;52.276;9.946;2022-12-29T03:55:04;10.10;99.90
5842;DHT22;2947;52.276;9.946;2022-12-29T03:57:30;10.10;99.90
5842;DHT22;2947;52.276;9.946;2022-12-29T03:59:56;10.10;99.90
5842;DHT22;2947;52.276;9.946;2022-12-29T04:02:21;10.10;99.90
5842;DHT22;2947;52.276;9.946;2022-12-29T04:04:47;10.10;99.90
5842;DHT22;2947;52.276;9.946;2022-12-29T04:07:13;10.10;99.90
5842;DHT22;2947;52.276;9.946;2022-12-29T04:09:38;10.10;99.90
5842;DHT22;2947;52.276;9.946;2022-12-29T04:12:04;10.10;99.90
5842;DHT22;2947;52.276;9.946;2022-12-29T04:14:30;10.10;99.90
5842;DHT22;2947;52.276;9.946;2022-12-29T04:16:55;10.20;99.90
5842;DHT22;2947;52.276;9.946;2022-12-29T04:19:21;10.20;99.90
5842;DHT22;2947;52.276;9.946;2022-12-29T04:21:47;10.30;99.90
5842;DHT22;2947;52.276;9.946;2022-12-29T04:24:13;10.40;99.90
5842;DHT22;2947;52.276;9.946;2022-12-29T04:26:40;10.40;99.90
5842;DHT22;2947;52.276;9.946;2022-12-29T04:29:05;10.50;99.90
5842;DHT22;2947;52.276;9.946;2022-12-29T04:31:31;10.50;99.90
5842;DHT22;2947;52.276;9.946;2022-12-29T04:33:57;10.60;99.90
5842;DHT22;2947;52.276;9.946;2022-12-29T04:36:23;10.50;99.90
5842;DHT22;2947;52.276;9.946;2022-12-29T04:38:49;10.60;99.90
5842;DHT22;2947;52.276;9.946;2022-12-29T04:41:15;10.60;99.90
5842;DHT22;2947;52.276;9.946;2022-12-29T04:43:40;10.60;99.90
5842;DHT22;2947;52.276;9.946;2022-12-29T04:46:06;10.60;99.90
5842;DHT22;2947;52.276;9.946;2022-12-29T04:48:32;10.00;99.90
5842;DHT22;2947;52.276;9.946;2022-12-29T04:50:57;10.60;99.90
5842;DHT22;2947;52.276;9.946;2022-12-29T04:53:23;10.60;99.90
5842;DHT22;2947;52.276;9.946;2022-12-29T04:55:50;10.70;99.90
5842;DHT22;2947;52.276;9.946;2022-12-29T04:58:17;10.80;99.90
5842;DHT22;2947;52.276;9.946;2022-12-29T05:00:44;10.80;99.90
5842;DHT22;2947;52.276;9.946;2022-12-29T05:03:09;10.80;95.50
5842;DHT22;2947;52.276;9.946;2022-12-29T05:05:35;10.90;95.90
5842;DHT22;2947;52.276;9.946;2022-12-29T05:08:01;10.80;93.10
5842;DHT22;2947;52.276;9.946;2022-12-29T05:10:27;10.90;77.20
5842;DHT22;2947;52.276;9.946;2022-12-29T05:12:52;10.90;74.50
5842;DHT22;2947;52.276;9.946;2022-12-29T05:15:18;10.90;58.20
5842;DHT22;2947;52.276;9.946;2022-12-29T05:17:44;10.90;48.70
5842;DHT22;2947;52.276;9.946;2022-12-29T05:20:10;11.00;40.20
5842;DHT22;2947;52.276;9.946;2022-12-29T05:22:36;11.10;42.00
5842;DHT22;2947;52.276;9.946;2022-12-29T05:25:02;11.10;33.40
5842;DHT22;2947;52.276;9.946;2022-12-29T05:27:28;11.10;24.50
5842;DHT22;2947;52.276;9.946;2022-12-29T05:29:53;11.20;29.90
5842;DHT22;2947;52.276;9.946;2022-12-29T05:32:19;11.10;22.70
5842;DHT22;2947;52.276;9.946;2022-12-29T05:34:45;11.30;18.30
5842;DHT22;2947;52.276;9.946;2022-12-29T05:37:11;11.30;13.90
5842;DHT22;2947;52.276;9.946;2022-12-29T05:39:36;11.30;10.90
5842;DHT22;2947;52.276;9.946;2022-12-29T05:42:02;11.30;12.20
5842;DHT22;2947;52.276;9.946;2022-12-29T05:44:28;11.30;18.80
5842;DHT22;2947;52.276;9.946;2022-12-29T05:46:53;11.40;18.90
5842;DHT22;2947;52.276;9.946;2022-12-29T05:49:19;11.30;32.40
5842;DHT22;2947;52.276;9.946;2022-12-29T05:51:45;11.20;36.00
5842;DHT22;2947;52.276;9.946;2022-12-29T05:54:10;11.20;62.60
5842;DHT22;2947;52.276;9.946;2022-12-29T05:56:36;11.10;84.50
5842;DHT22;2947;52.276;9.946;2022-12-29T05:59:02;11.10;90.60
5842;DHT22;2947;52.276;9.946;2022-12-29T06:01:27;11.00;99.70
5842;DHT22;2947;52.276;9.946;2022-12-29T06:03:53;11.00;99.90
5842;DHT22;2947;52.276;9.946;2022-12-29T06:06:19;11.00;99.90
5842;DHT22;2947;52.276;9.946;2022-12-29T06:08:45;10.90;99.90
5842;DHT22;2947;52.276;9.946;2022-12-29T06:11:11;10.90;99.90
5842;DHT22;2947;52.276;9.946;2022-12-29T06:13:36;10.90;99.90
5842;DHT22;2947;52.276;9.946;2022-12-29T06:16:02;10.90;99.90
5842;DHT22;2947;52.276;9.946;2022-12-29T06:18:28;10.80;99.90
5842;DHT22;2947;52.276;9.946;2022-12-29T06:20:54;10.80;99.90
5842;DHT22;2947;52.276;9.946;2022-12-29T06:23:19;10.80;99.90
5842;DHT22;2947;52.276;9.946;2022-12-29T06:25:47;10.70;99.90
5842;DHT22;2947;52.276;9.946;2022-12-29T06:28:13;10.60;99.90
5842;DHT22;2947;52.276;9.946;2022-12-29T06:30:39;10.70;99.90
5842;DHT22;2947;52.276;9.946;2022-12-29T06:33:05;10.70;99.90
5842;DHT22;2947;52.276;9.946;2022-12-29T06:35:30;10.70;99.90
5842;DHT22;2947;52.276;9.946;2022-12-29T06:37:56;10.60;99.90
5842;DHT22;2947;52.276;9.946;2022-12-29T06:40:22;10.70;99.90
5842;DHT22;2947;52.276;9.946;2022-12-29T06:42:48;10.70;99.90
5842;DHT22;2947;52.276;9.946;2022-12-29T06:45:14;10.70;99.90
5842;DHT22;2947;52.276;9.946;2022-12-29T06:47:39;10.70;99.90
5842;DHT22;2947;52.276;9.946;2022-12-29T06:50:05;10.90;99.90
5842;DHT22;2947;52.276;9.946;2022-12-29T06:52:31;10.90;99.90
5842;DHT22;2947;52.276;9.946;2022-12-29T06:54:57;10.90;99.90
5842;DHT22;2947;52.276;9.946;2022-12-29T06:57:22;10.90;99.90
5842;DHT22;2947;52.276;9.946;2022-12-29T06:59:48;11.10;99.90
5842;DHT22;2947;52.276;9.946;2022-12-29T07:02:14;11.10;99.90
5842;DHT22;2947;52.276;9.946;2022-12-29T07:04:41;11.10;99.90
5842;DHT22;2947;52.276;9.946;2022-12-29T07:07:07;11.10;99.90
5842;DHT22;2947;52.276;9.946;2022-12-29T07:09:33;11.10;99.90
5842;DHT22;2947;52.276;9.946;2022-12-29T07:11:58;11.10;99.90
5842;DHT22;2947;52.276;9.946;2022-12-29T07:14:24;11.20;93.20
5842;DHT22;2947;52.276;9.946;2022-12-29T07:16:50;11.30;75.20
5842;DHT22;2947;52.276;9.946;2022-12-29T07:19:16;11.30;69.90
5842;DHT22;2947;52.276;9.946;2022-12-29T07:21:41;11.10;48.30
5842;DHT22;2947;52.276;9.946;2022-12-29T07:24:07;11.40;38.20
5842;DHT22;2947;52.276;9.946;2022-12-29T07:26:33;11.40;25.60
5842;DHT22;2947;52.276;9.946;2022-12-29T07:29:00;11.50;8.30
5842;DHT22;2947;52.276;9.946;2022-12-29T07:31:26;11.50;11.40
5842;DHT22;2947;52.276;9.946;2022-12-29T07:33:52;11.50;18.40
5842;DHT22;2947;52.276;9.946;2022-12-29T07:36:17;11.40;9.40
5842;DHT22;2947;52.276;9.946;2022-12-29T07:38:43;11.50;1.00
5842;DHT22;2947;52.276;9.946;2022-12-29T07:41:09;11.60;1.00
5842;DHT22;2947;52.276;9.946;2022-12-29T07:43:35;12.60;1.00
5842;DHT22;2947;52.276;9.946;2022-12-29T07:46:00;11.70;1.00
5842;DHT22;2947;52.276;9.946;2022-12-29T07:48:26;11.70;1.00
5842;DHT22;2947;52.276;9.946;2022-12-29T07:50:53;11.60;2.30
5842;DHT22;2947;52.276;9.946;2022-12-29T07:53:19;11.60;17.40
5842;DHT22;2947;52.276;9.946;2022-12-29T07:55:44;11.60;27.80
5842;DHT22;2947;52.276;9.946;2022-12-29T07:58:10;11.50;39.60
5842;DHT22;2947;52.276;9.946;2022-12-29T08:00:37;11.40;42.20
5842;DHT22;2947;52.276;9.946;2022-12-29T08:03:04;11.40;22.50
5842;DHT22;2947;52.276;9.946;2022-12-29T08:05:33;11.50;34.60
5842;DHT22;2947;52.276;9.946;2022-12-29T08:07:59;11.50;35.90
5842;DHT22;2947;52.276;9.946;2022-12-29T08:10:25;11.50;26.10
5842;DHT22;2947;52.276;9.946;2022-12-29T08:12:51;11.40;13.10
5842;DHT22;2947;52.276;9.946;2022-12-29T08:15:16;11.40;23.70
5842;DHT22;2947;52.276;9.946;2022-12-29T08:17:42;11.40;1.00
5842;DHT22;2947;52.276;9.946;2022-12-29T08:20:08;11.40;1.00
5842;DHT22;2947;52.276;9.946;2022-12-29T08:22:34;11.40;1.00
5842;DHT22;2947;52.276;9.946;2022-12-29T08:25:00;11.40;4.90
5842;DHT22;2947;52.276;9.946;2022-12-29T08:27:26;11.30;23.90
5842;DHT22;2947;52.276;9.946;2022-12-29T08:29:52;11.30;32.90
5842;DHT22;2947;52.276;9.946;2022-12-29T08:32:18;12.10;46.10
5842;DHT22;2947;52.276;9.946;2022-12-29T08:34:43;11.30;77.50
5842;DHT22;2947;52.276;9.946;2022-12-29T08:37:09;11.30;99.90
5842;DHT22;2947;52.276;9.946;2022-12-29T08:39:35;12.10;99.90
5842;DHT22;2947;52.276;9.946;2022-12-29T08:42:00;11.20;99.90
5842;DHT22;2947;52.276;9.946;2022-12-29T08:44:26;11.10;99.90
5842;DHT22;2947;52.276;9.946;2022-12-29T08:46:52;11.10;99.90
5842;DHT22;2947;52.276;9.946;2022-12-29T08:49:18;11.00;99.90
5842;DHT22;2947;52.276;9.946;2022-12-29T08:51:43;10.90;99.90
5842;DHT22;2947;52.276;9.946;2022-12-29T08:54:09;10.80;99.90
5842;DHT22;2947;52.276;9.946;2022-12-29T08:56:35;10.60;99.90
5842;DHT22;2947;52.276;9.946;2022-12-29T08:59:01;10.40;99.90
5842;DHT22;2947;52.276;9.946;2022-12-29T09:01:27;10.40;99.90
5842;DHT22;2947;52.276;9.946;2022-12-29T09:03:53;10.30;99.90
5842;DHT22;2947;52.276;9.946;2022-12-29T09:06:19;10.30;99.90
5842;DHT22;2947;52.276;9.946;2022-12-29T09:08:45;10.20;99.90
5842;DHT22;2947;52.276;9.946;2022-12-29T09:11:13;10.20;99.90
5842;DHT22;2947;52.276;9.946;2022-12-29T09:13:43;10.20;99.90
5842;DHT22;2947;52.276;9.946;2022-12-29T09:16:09;10.20;99.90
5842;DHT22;2947;52.276;9.946;2022-12-29T09:18:35;10.20;99.90
5842;DHT22;2947;52.276;9.946;2022-12-29T09:21:02;10.20;99.90
5842;DHT22;2947;52.276;9.946;2022-12-29T09:23:29;10.20;99.90
5842;DHT22;2947;52.276;9.946;2022-12-29T09:25:55;10.20;99.90
5842;DHT22;2947;52.276;9.946;2022-12-29T09:28:21;10.20;99.90
5842;DHT22;2947;52.276;9.946;2022-12-29T09:30:48;10.20;99.90
5842;DHT22;2947;52.276;9.946;2022-12-29T09:33:14;10.20;99.90
5842;DHT22;2947;52.276;9.946;2022-12-29T09:35:45;10.20;99.90
5842;DHT22;2947;52.276;9.946;2022-12-29T09:38:11;10.20;99.90
5842;DHT22;2947;52.276;9.946;2022-12-29T09:40:38;10.20;99.90
5842;DHT22;2947;52.276;9.946;2022-12-29T09:43:29;10.20;99.90
5842;DHT22;2947;52.276;9.946;2022-12-29T09:46:15;10.20;99.90
5842;DHT22;2947;52.276;9.946;2022-12-29T09:48:50;10.20;99.90
5842;DHT22;2947;52.276;9.946;2022-12-29T09:51:39;10.10;99.90
5842;DHT22;2947;52.276;9.946;2022-12-29T09:54:38;10.00;99.90
5842;DHT22;2947;52.276;9.946;2022-12-29T09:57:30;10.00;99.90
5842;DHT22;2947;52.276;9.946;2022-12-29T10:00:05;10.00;99.90
5842;DHT22;2947;52.276;9.946;2022-12-29T10:02:56;10.10;99.90
5842;DHT22;2947;52.276;9.946;2022-12-29T10:05:35;10.10;99.90
5842;DHT22;2947;52.276;9.946;2022-12-29T10:11:07;10.20;99.90
5842;DHT22;2947;52.276;9.946;2022-12-29T10:16:42;10.40;99.90
5842;DHT22;2947;52.276;9.946;2022-12-29T10:19:33;10.50;99.90
5842;DHT22;2947;52.276;9.946;2022-12-29T10:24:41;10.70;99.90
5842;DHT22;2947;52.276;9.946;2022-12-29T10:27:12;10.80;99.90
5842;DHT22;2947;52.276;9.946;2022-12-29T10:29:45;10.80;99.90
5842;DHT22;2947;52.276;9.946;2022-12-29T10:32:30;10.80;99.90
5842;DHT22;2947;52.276;9.946;2022-12-29T10:35:09;10.80;99.90
5842;DHT22;2947;52.276;9.946;2022-12-29T10:37:58;10.90;99.90
5842;DHT22;2947;52.276;9.946;2022-12-29T10:40:36;10.80;99.90
5842;DHT22;2947;52.276;9.946;2022-12-29T10:43:31;10.70;99.90
5842;DHT22;2947;52.276;9.946;2022-12-29T10:46:10;10.70;99.90
5842;DHT22;2947;52.276;9.946;2022-12-29T10:48:37;10.60;99.90
5842;DHT22;2947;52.276;9.946;2022-12-29T10:51:05;10.70;99.90
5842;DHT22;2947;52.276;9.946;2022-12-29T10:53:40;10.70;99.90
5842;DHT22;2947;52.276;9.946;2022-12-29T10:56:30;10.80;99.90
5842;DHT22;2947;52.276;9.946;2022-12-29T10:59:13;10.90;99.90
5842;DHT22;2947;52.276;9.946;2022-12-29T11:01:58;10.90;96.90
5842;DHT22;2947;52.276;9.946;2022-12-29T11:04:36;10.90;95.40
5842;DHT22;2947;52.276;9.946;2022-12-29T11:07:04;11.00;85.00
5842;DHT22;2947;52.276;9.946;2022-12-29T11:09:34;11.00;94.50
5842;DHT22;2947;52.276;9.946;2022-12-29T11:17:50;11.00;55.10
5842;DHT22;2947;52.276;9.946;2022-12-29T11:20:27;11.00;59.00
5842;DHT22;2947;52.276;9.946;2022-12-29T11:23:06;11.00;1.00
5842;DHT22;2947;52.276;9.946;2022-12-29T11:26:16;11.10;1.00
5842;DHT22;2947;52.276;9.946;2022-12-29T11:28:47;11.10;1.80
5842;DHT22;2947;52.276;9.946;2022-12-29T11:31:50;11.20;1.00
5842;DHT22;2947;52.276;9.946;2022-12-29T11:34:19;11.20;1.00
5842;DHT22;2947;52.276;9.946;2022-12-29T11:36:46;11.10;1.00
5842;DHT22;2947;52.276;9.946;2022-12-29T11:39:28;11.20;1.00
5842;DHT22;2947;52.276;9.946;2022-12-29T11:41:55;11.20;1.00
5842;DHT22;2947;52.276;9.946;2022-12-29T11:44:21;11.20;1.00
5842;DHT22;2947;52.276;9.946;2022-12-29T11:46:49;11.20;1.00
5842;DHT22;2947;52.276;9.946;2022-12-29T11:49:24;11.20;1.00
5842;DHT22;2947;52.276;9.946;2022-12-29T11:51:53;11.20;1.00
5842;DHT22;2947;52.276;9.946;2022-12-29T11:54:29;11.20;1.00
5842;DHT22;2947;52.276;9.946;2022-12-29T11:56:57;11.20;99.90
5842;DHT22;2947;52.276;9.946;2022-12-29T11:59:36;11.30;99.90
5842;DHT22;2947;52.276;9.946;2022-12-29T12:02:31;11.30;99.90
5842;DHT22;2947;52.276;9.946;2022-12-29T12:05:14;11.30;1.00
5842;DHT22;2947;52.276;9.946;2022-12-29T12:08:04;11.30;1.00
5842;DHT22;2947;52.276;9.946;2022-12-29T12:10:39;11.30;1.00
5842;DHT22;2947;52.276;9.946;2022-12-29T12:13:25;11.40;99.90
5842;DHT22;2947;52.276;9.946;2022-12-29T12:16:15;11.40;1.00
5842;DHT22;2947;52.276;9.946;2022-12-29T12:19:26;11.30;99.90
5842;DHT22;2947;52.276;9.946;2022-12-29T12:22:31;11.30;99.90
5842;DHT22;2947;52.276;9.946;2022-12-29T12:28:00;11.40;99.90
5842;DHT22;2947;52.276;9.946;2022-12-29T12:30:30;11.40;96.20
5842;DHT22;2947;52.276;9.946;2022-12-29T12:38:49;11.30;99.90
5842;DHT22;2947;52.276;9.946;2022-12-29T12:41:44;11.40;99.90
5842;DHT22;2947;52.276;9.946;2022-12-29T12:44:41;11.40;99.90
5842;DHT22;2947;52.276;9.946;2022-12-29T12:50:29;11.40;99.90
5842;DHT22;2947;52.276;9.946;2022-12-29T12:53:19;11.40;99.90
5842;DHT22;2947;52.276;9.946;2022-12-29T12:56:07;11.40;99.90
5842;DHT22;2947;52.276;9.946;2022-12-29T12:58:56;11.30;99.90
5842;DHT22;2947;52.276;9.946;2022-12-29T13:04:46;11.30;99.90
5842;DHT22;2947;52.276;9.946;2022-12-29T13:10:25;11.30;99.90
5842;DHT22;2947;52.276;9.946;2022-12-29T13:13:28;11.30;1.00
5842;DHT22;2947;52.276;9.946;2022-12-29T13:28:05;11.20;99.90
5842;DHT22;2947;52.276;9.946;2022-12-29T13:30:54;11.20;1.00
5842;DHT22;2947;52.276;9.946;2022-12-29T13:33:50;11.10;1.00
5842;DHT22;2947;52.276;9.946;2022-12-29T13:36:27;11.20;1.00
5842;DHT22;2947;52.276;9.946;2022-12-29T13:39:08;11.20;1.00
5842;DHT22;2947;52.276;9.946;2022-12-29T13:41:44;11.20;1.00
5842;DHT22;2947;52.276;9.946;2022-12-29T13:44:17;11.20;99.90
5842;DHT22;2947;52.276;9.946;2022-12-29T13:46:52;11.20;99.90
5842;DHT22;2947;52.276;9.946;2022-12-29T13:49:20;11.20;99.90
5842;DHT22;2947;52.276;9.946;2022-12-29T13:58:05;11.20;56.00
5842;DHT22;2947;52.276;9.946;2022-12-29T14:06:24;11.20;1.00
5842;DHT22;2947;52.276;9.946;2022-12-29T14:09:02;11.20;1.00
5842;DHT22;2947;52.276;9.946;2022-12-29T14:11:38;11.20;1.00
5842;DHT22;2947;52.276;9.946;2022-12-29T14:14:21;11.10;1.00
5842;DHT22;2947;52.276;9.946;2022-12-29T14:16:48;11.20;1.00
5842;DHT22;2947;52.276;9.946;2022-12-29T14:19:25;11.10;1.00
5842;DHT22;2947;52.276;9.946;2022-12-29T14:21:53;11.20;1.00
5842;DHT22;2947;52.276;9.946;2022-12-29T14:24:32;11.10;1.00
5842;DHT22;2947;52.276;9.946;2022-12-29T14:34:55;11.10;1.00
5842;DHT22;2947;52.276;9.946;2022-12-29T14:37:38;11.10;1.00
5842;DHT22;2947;52.276;9.946;2022-12-29T14:40:23;11.10;1.00
5842;DHT22;2947;52.276;9.946;2022-12-29T14:42:55;11.10;1.00
5842;DHT22;2947;52.276;9.946;2022-12-29T14:45:28;11.10;1.00
5842;DHT22;2947;52.276;9.946;2022-12-29T14:47:55;11.10;1.00
5842;DHT22;2947;52.276;9.946;2022-12-29T14:50:25;11.00;1.00
5842;DHT22;2947;52.276;9.946;2022-12-29T14:53:41;11.00;1.00
5842;DHT22;2947;52.276;9.946;2022-12-29T14:56:10;11.00;1.00
5842;DHT22;2947;52.276;9.946;2022-12-29T14:59:08;10.90;1.00
5842;DHT22;2947;52.276;9.946;2022-12-29T15:01:52;10.90;1.00
5842;DHT22;2947;52.276;9.946;2022-12-29T15:04:31;10.90;1.00
5842;DHT22;2947;52.276;9.946;2022-12-29T15:06:59;10.80;99.90
5842;DHT22;2947;52.276;9.946;2022-12-29T15:09:37;10.80;57.30
5842;DHT22;2947;52.276;9.946;2022-12-29T15:12:15;10.70;1.00
5842;DHT22;2947;52.276;9.946;2022-12-29T15:14:56;10.70;99.90
5842;DHT22;2947;52.276;9.946;2022-12-29T15:17:27;10.60;1.00
5842;DHT22;2947;52.276;9.946;2022-12-29T15:20:13;10.60;99.90
5842;DHT22;2947;52.276;9.946;2022-12-29T15:23:02;10.50;1.00
5842;DHT22;2947;52.276;9.946;2022-12-29T15:25:35;10.50;81.30
5842;DHT22;2947;52.276;9.946;2022-12-29T15:28:04;10.50;99.90
5842;DHT22;2947;52.276;9.946;2022-12-29T15:30:32;10.50;99.90
5842;DHT22;2947;52.276;9.946;2022-12-29T15:32:58;10.50;1.00
5842;DHT22;2947;52.276;9.946;2022-12-29T15:35:33;10.50;1.00
5842;DHT22;2947;52.276;9.946;2022-12-29T15:38:01;10.50;99.90
5842;DHT22;2947;52.276;9.946;2022-12-29T15:40:39;10.50;1.00
5842;DHT22;2947;52.276;9.946;2022-12-29T15:43:25;10.40;1.00
5842;DHT22;2947;52.276;9.946;2022-12-29T15:46:02;10.40;1.00
5842;DHT22;2947;52.276;9.946;2022-12-29T15:48:28;10.40;1.00
5842;DHT22;2947;52.276;9.946;2022-12-29T15:50:55;10.40;70.80
5842;DHT22;2947;52.276;9.946;2022-12-29T15:53:32;10.40;1.00
5842;DHT22;2947;52.276;9.946;2022-12-29T15:56:08;10.30;1.00
5842;DHT22;2947;52.276;9.946;2022-12-29T15:58:46;10.20;1.00
5842;DHT22;2947;52.276;9.946;2022-12-29T16:01:27;10.10;99.90
5842;DHT22;2947;52.276;9.946;2022-12-29T16:03:57;10.00;1.00
5842;DHT22;2947;52.276;9.946;2022-12-29T16:06:33;10.00;70.90
5842;DHT22;2947;52.276;9.946;2022-12-29T16:09:06;9.90;99.90
5842;DHT22;2947;52.276;9.946;2022-12-29T16:11:47;9.90;99.90
5842;DHT22;2947;52.276;9.946;2022-12-29T16:14:18;9.80;99.90
5842;DHT22;2947;52.276;9.946;2022-12-29T16:16:47;9.80;99.90
5842;DHT22;2947;52.276;9.946;2022-12-29T16:19:35;9.80;99.90
5842;DHT22;2947;52.276;9.946;2022-12-29T16:22:09;9.80;99.90
5842;DHT22;2947;52.276;9.946;2022-12-29T16:24:39;9.70;1.00
5842;DHT22;2947;52.276;9.946;2022-12-29T16:27:21;9.70;1.00
5842;DHT22;2947;52.276;9.946;2022-12-29T16:29:53;9.70;1.00
5842;DHT22;2947;52.276;9.946;2022-12-29T16:32:26;9.70;1.00
5842;DHT22;2947;52.276;9.946;2022-12-29T16:35:21;9.70;1.00
5842;DHT22;2947;52.276;9.946;2022-12-29T16:40:32;9.60;1.00
5842;DHT22;2947;52.276;9.946;2022-12-29T16:43:00;9.60;99.90
5842;DHT22;2947;52.276;9.946;2022-12-29T16:50:47;9.70;99.90
5842;DHT22;2947;52.276;9.946;2022-12-29T16:53:24;9.70;99.90
5842;DHT22;2947;52.276;9.946;2022-12-29T16:55:53;9.80;73.60
5842;DHT22;2947;52.276;9.946;2022-12-29T16:58:25;9.80;1.00
5842;DHT22;2947;52.276;9.946;2022-12-29T17:01:03;9.80;99.90
5842;DHT22;2947;52.276;9.946;2022-12-29T17:03:40;9.80;1.00
5842;DHT22;2947;52.276;9.946;2022-12-29T17:06:14;9.80;99.90
5842;DHT22;2947;52.276;9.946;2022-12-29T17:08:42;9.90;1.00
5842;DHT22;2947;52.276;9.946;2022-12-29T17:11:21;9.90;99.90
5842;DHT22;2947;52.276;9.946;2022-12-29T17:14:27;9.90;1.00
5842;DHT22;2947;52.276;9.946;2022-12-29T17:16:57;9.80;1.00
5842;DHT22;2947;52.276;9.946;2022-12-29T17:19:35;9.70;99.90
5842;DHT22;2947;52.276;9.946;2022-12-29T17:22:09;9.70;99.90
5842;DHT22;2947;52.276;9.946;2022-12-29T17:24:37;9.70;1.00
5842;DHT22;2947;52.276;9.946;2022-12-29T17:27:03;9.70;99.90
5842;DHT22;2947;52.276;9.946;2022-12-29T17:29:39;9.70;1.00
5842;DHT22;2947;52.276;9.946;2022-12-29T17:32:13;9.60;99.90
5842;DHT22;2947;52.276;9.946;2022-12-29T17:34:40;9.70;99.90
5842;DHT22;2947;52.276;9.946;2022-12-29T17:37:27;9.60;1.00
5842;DHT22;2947;52.276;9.946;2022-12-29T17:39:53;9.60;1.00
5842;DHT22;2947;52.276;9.946;2022-12-29T17:42:19;9.60;99.90
5842;DHT22;2947;52.276;9.946;2022-12-29T17:44:45;9.60;99.90
5842;DHT22;2947;52.276;9.946;2022-12-29T17:47:11;9.60;99.90
5842;DHT22;2947;52.276;9.946;2022-12-29T17:49:37;9.50;99.90
5842;DHT22;2947;52.276;9.946;2022-12-29T17:52:04;9.50;1.00
5842;DHT22;2947;52.276;9.946;2022-12-29T17:54:30;9.50;99.90
5842;DHT22;2947;52.276;9.946;2022-12-29T17:56:56;9.40;99.90
5842;DHT22;2947;52.276;9.946;2022-12-29T17:59:22;9.40;99.90
5842;DHT22;2947;52.276;9.946;2022-12-29T18:01:48;9.40;99.90
5842;DHT22;2947;52.276;9.946;2022-12-29T18:04:17;9.40;99.90
5842;DHT22;2947;52.276;9.946;2022-12-29T18:06:45;9.40;99.90
5842;DHT22;2947;52.276;9.946;2022-12-29T18:09:11;9.40;99.90
5842;DHT22;2947;52.276;9.946;2022-12-29T18:11:39;9.50;1.00
5842;DHT22;2947;52.276;9.946;2022-12-29T18:14:14;9.50;1.00
5842;DHT22;2947;52.276;9.946;2022-12-29T18:16:42;9.50;99.90
5842;DHT22;2947;52.276;9.946;2022-12-29T18:19:08;9.60;99.90
5842;DHT22;2947;52.276;9.946;2022-12-29T18:21:35;9.60;99.90
5842;DHT22;2947;52.276;9.946;2022-12-29T18:24:01;9.60;12.70
5842;DHT22;2947;52.276;9.946;2022-12-29T18:26:28;9.50;99.90
5842;DHT22;2947;52.276;9.946;2022-12-29T18:28:59;9.50;1.00